createdAt,value
2023-04-20T00:00:39.852Z,88.19
2023-04-20T00:05:41.453Z,88.79
2023-04-20T00:10:45.176Z,88.76
2023-04-20T00:15:46.772Z,89.40
2023-04-20T00:20:48.528Z,89.64
2023-04-20T00:25:51.707Z,89.93
2023-04-20T00:30:53.338Z,89.39
2023-04-20T00:35:56.427Z,88.46
2023-04-20T00:40:58.750Z,88.67
2023-04-20T00:46:00.622Z,89.39
2023-04-20T00:51:02.427Z,89.16
2023-04-20T00:56:04.981Z,89.38
2023-04-20T01:01:08.883Z,90.27
2023-04-20T01:06:11.046Z,90.40
2023-04-20T01:11:12.872Z,91.84
2023-04-20T01:16:14.686Z,90.98
2023-04-20T01:21:21.866Z,90.07
2023-04-20T01:26:25.253Z,90.36
2023-04-20T01:31:27.311Z,89.65
2023-04-20T01:36:28.956Z,89.98
2023-04-20T01:41:30.557Z,89.55
2023-04-20T01:46:32.271Z,89.63
2023-04-20T01:51:35.465Z,89.66
2023-04-20T01:56:37.134Z,90.37
2023-04-20T02:01:38.951Z,90.21
2023-04-20T02:06:41.096Z,90.75
2023-04-20T02:11:44.339Z,90.42
2023-04-20T02:16:46.806Z,89.83
2023-04-20T02:21:48.643Z,89.63
2023-04-20T02:26:50.576Z,89.92
2023-04-20T02:31:52.513Z,90.35
2023-04-20T02:36:54.399Z,90.72
2023-04-20T02:41:56.859Z,91.11
2023-04-20T02:46:58.782Z,91.08
2023-04-20T02:52:01.238Z,90.84
2023-04-20T02:57:03.698Z,91.11
2023-04-20T03:02:05.739Z,90.95
2023-04-20T03:07:07.894Z,90.47
2023-04-20T03:12:11.670Z,90.36
2023-04-20T03:17:28.262Z,90.58
2023-04-20T03:22:30.306Z,91.13
2023-04-20T03:27:35.319Z,90.68
2023-04-20T03:32:45.305Z,90.70
2023-04-20T03:37:47.153Z,90.62
2023-04-20T03:42:48.804Z,90.99
2023-04-20T03:47:50.493Z,91.05
2023-04-20T03:52:52.137Z,90.85
2023-04-20T03:57:55.024Z,91.00
2023-04-20T04:02:57.729Z,91.28
2023-04-20T04:08:02.615Z,91.40
2023-04-20T04:13:04.990Z,91.01
2023-04-20T04:18:06.939Z,91.21
2023-04-20T04:23:10.530Z,91.23
2023-04-20T04:28:20.023Z,91.05
2023-04-20T04:33:34.704Z,91.37
2023-04-20T04:38:37.862Z,91.43
2023-04-20T04:43:41.552Z,91.36
2023-04-20T04:49:02.835Z,90.92
2023-04-20T04:54:04.846Z,90.66
2023-04-20T04:59:06.696Z,90.98
2023-04-20T05:04:08.614Z,90.59
2023-04-20T05:09:10.405Z,90.76
2023-04-20T05:14:12.053Z,90.53
2023-04-20T05:19:13.682Z,90.36
2023-04-20T05:24:15.662Z,90.30
2023-04-20T05:29:17.668Z,90.29
2023-04-20T05:34:19.543Z,89.62
2023-04-20T05:39:21.220Z,89.75
2023-04-20T05:44:22.828Z,89.58
2023-04-20T05:49:24.395Z,89.71
2023-04-20T05:54:28.265Z,89.16
2023-04-20T05:59:29.914Z,88.78
2023-04-20T06:04:32.097Z,88.37
2023-04-20T06:09:33.924Z,88.35
2023-04-20T06:14:35.560Z,87.76
2023-04-20T06:19:37.305Z,87.64
2023-04-20T06:24:38.947Z,86.91
2023-04-20T06:29:40.628Z,86.35
2023-04-20T06:34:42.231Z,86.07
2023-04-20T06:39:43.911Z,87.06
2023-04-20T06:44:45.827Z,86.30
2023-04-20T06:49:47.496Z,85.84
2023-04-20T06:54:49.118Z,85.57
2023-04-20T06:59:50.716Z,84.57
2023-04-20T07:04:52.505Z,84.75
2023-04-20T07:09:54.368Z,83.39
2023-04-20T07:14:56.230Z,83.60
2023-04-20T07:19:59.062Z,82.49
2023-04-20T07:25:05.264Z,82.34
2023-04-20T07:30:08.935Z,82.38
2023-04-20T07:35:11.316Z,82.15
2023-04-20T07:40:13.037Z,81.54
2023-04-20T07:45:14.809Z,80.78
2023-04-20T07:50:16.522Z,79.32
2023-04-20T07:55:18.459Z,79.24
2023-04-20T08:00:20.703Z,77.83
2023-04-20T08:05:22.534Z,77.22
2023-04-20T08:10:24.650Z,76.78
2023-04-20T08:15:26.322Z,75.44
2023-04-20T08:20:28.029Z,76.19
2023-04-20T08:25:29.814Z,75.79
2023-04-20T08:30:31.603Z,74.99
2023-04-20T08:35:33.423Z,75.95
2023-04-20T08:40:38.975Z,75.58
2023-04-20T08:45:44.206Z,73.95
2023-04-20T08:50:47.136Z,71.80
2023-04-20T08:55:49.873Z,73.13
2023-04-20T09:00:51.522Z,71.66
2023-04-20T09:05:53.168Z,71.13
2023-04-20T09:10:54.846Z,69.63
2023-04-20T09:15:56.575Z,70.36
2023-04-20T09:21:07.892Z,71.18
2023-04-20T09:26:18.688Z,70.55
2023-04-20T09:31:21.908Z,73.23
2023-04-20T09:36:24.320Z,71.34
2023-04-20T09:41:25.998Z,70.70
2023-04-20T09:46:32.505Z,69.97
2023-04-20T09:51:36.568Z,72.93
2023-04-20T09:56:38.637Z,71.03
2023-04-20T10:01:40.370Z,71.10
2023-04-20T10:06:55.829Z,70.13
2023-04-20T10:12:08.901Z,70.72
2023-04-20T10:17:11.471Z,69.80
2023-04-20T10:22:26.197Z,68.83
2023-04-20T10:27:28.344Z,71.15
2023-04-20T10:32:30.089Z,69.20
2023-04-20T10:37:32.343Z,68.76
2023-04-20T10:42:46.560Z,68.15
2023-04-20T10:47:48.239Z,67.29
2023-04-20T10:52:49.914Z,67.17
2023-04-20T10:57:52.305Z,64.84
2023-04-20T11:02:58.886Z,64.11
2023-04-20T11:08:01.377Z,63.24
2023-04-20T11:13:03.030Z,64.85
2023-04-20T11:18:09.191Z,63.80
2023-04-20T11:23:11.235Z,64.32
2023-04-20T11:28:12.828Z,61.81
2023-04-20T11:33:14.757Z,63.66
2023-04-20T11:38:27.630Z,64.03
2023-04-20T11:43:29.397Z,63.72
2023-04-20T11:48:31.545Z,65.03
2023-04-20T11:53:33.360Z,64.61
2023-04-20T11:58:35.509Z,63.76
2023-04-20T12:03:37.566Z,64.67
2023-04-20T12:08:39.477Z,63.04
2023-04-20T12:13:41.085Z,63.42
2023-04-20T12:18:42.981Z,62.21
2023-04-20T12:23:44.868Z,62.92
2023-04-20T12:28:46.488Z,61.76
2023-04-20T12:33:48.084Z,61.96
2023-04-20T12:38:52.928Z,60.93
2023-04-20T12:43:54.554Z,59.08
2023-04-20T12:48:56.297Z,60.19
2023-04-20T12:53:58.062Z,59.94
2023-04-20T12:58:59.860Z,59.49
2023-04-20T13:04:01.934Z,59.39
2023-04-20T13:09:04.436Z,58.98
2023-04-20T13:14:06.282Z,61.12
2023-04-20T13:19:08.230Z,60.25
2023-04-20T13:24:10.140Z,61.07
2023-04-20T13:29:11.870Z,60.54
2023-04-20T13:34:13.552Z,59.65
2023-04-20T13:39:15.960Z,60.89
2023-04-20T13:44:17.999Z,61.70
2023-04-20T13:49:22.656Z,61.19
2023-04-20T13:54:24.539Z,61.58
2023-04-20T13:59:26.156Z,61.08
2023-04-20T14:04:27.794Z,61.50
2023-04-20T14:09:31.297Z,63.17
2023-04-20T14:14:33.401Z,62.99
2023-04-20T14:19:35.104Z,61.93
2023-04-20T14:24:36.748Z,62.86
2023-04-20T14:29:38.367Z,62.20
2023-04-20T14:34:39.953Z,63.15
2023-04-20T14:39:41.567Z,62.64
2023-04-20T14:44:43.244Z,60.05
2023-04-20T14:49:44.860Z,61.89
2023-04-20T14:54:46.480Z,61.46
2023-04-20T14:59:48.137Z,60.39
2023-04-20T15:04:50.510Z,60.87
2023-04-20T15:09:52.295Z,61.41
2023-04-20T15:14:54.105Z,59.65
2023-04-20T15:19:55.764Z,60.37
2023-04-20T15:24:57.595Z,60.35
2023-04-20T15:29:59.248Z,61.52
2023-04-20T15:35:01.367Z,60.93
2023-04-20T15:40:04.013Z,61.43
2023-04-20T15:45:06.401Z,62.45
2023-04-20T15:50:08.567Z,62.09
2023-04-20T15:55:10.977Z,63.13
2023-04-20T16:00:13.676Z,61.44
2023-04-20T16:05:15.468Z,63.21
2023-04-20T16:10:17.182Z,64.02
2023-04-20T16:15:19.565Z,63.65
2023-04-20T16:20:21.255Z,64.97
2023-04-20T16:25:23.273Z,65.09
2023-04-20T16:30:25.147Z,64.22
2023-04-20T16:35:26.864Z,65.80
2023-04-20T16:40:28.580Z,67.01
2023-04-20T16:45:30.606Z,66.95
2023-04-20T16:50:32.489Z,66.79
2023-04-20T16:55:34.231Z,66.66
2023-04-20T17:00:37.006Z,66.14
2023-04-20T17:05:41.598Z,66.57
2023-04-20T17:10:43.855Z,67.26
2023-04-20T17:15:46.327Z,68.31
2023-04-20T17:20:48.578Z,69.23
2023-04-20T17:25:51.328Z,69.32
2023-04-20T17:30:52.964Z,69.34
2023-04-20T17:35:56.895Z,69.78
2023-04-20T17:40:58.502Z,70.48
2023-04-20T17:46:00.770Z,71.61
2023-04-20T17:51:02.580Z,70.96
2023-04-20T17:56:06.218Z,71.49
2023-04-20T18:01:07.829Z,72.82
2023-04-20T18:06:09.460Z,72.36
2023-04-20T18:11:11.457Z,72.22
2023-04-20T18:16:13.190Z,72.03
2023-04-20T18:21:15.356Z,71.86
2023-04-20T18:26:20.501Z,71.80
2023-04-20T18:31:22.199Z,71.63
2023-04-20T18:36:24.159Z,72.91
2023-04-20T18:41:27.470Z,73.57
2023-04-20T18:46:29.402Z,75.48
2023-04-20T18:51:32.078Z,75.33
2023-04-20T18:56:33.792Z,75.22
2023-04-20T19:01:40.297Z,74.68
2023-04-20T19:06:42.235Z,74.79
2023-04-20T19:11:43.940Z,74.53
2023-04-20T19:16:45.659Z,74.74
2023-04-20T19:21:48.348Z,75.25
2023-04-20T19:26:49.935Z,75.58
2023-04-20T19:31:52.014Z,76.50
2023-04-20T19:36:54.157Z,76.96
2023-04-20T19:41:55.808Z,77.38
2023-04-20T19:46:57.379Z,77.99
2023-04-20T19:51:59.065Z,78.51
2023-04-20T19:57:01.270Z,78.69
2023-04-20T20:02:03.587Z,79.86
2023-04-20T20:07:05.391Z,79.12
2023-04-20T20:12:08.542Z,79.56
2023-04-20T20:17:10.679Z,79.52
2023-04-20T20:22:12.263Z,79.30
2023-04-20T20:27:14.015Z,79.45
2023-04-20T20:32:15.875Z,79.51
2023-04-20T20:37:17.571Z,79.51
2023-04-20T20:42:19.270Z,79.37
2023-04-20T20:47:20.988Z,79.35
2023-04-20T20:52:23.010Z,80.14
2023-04-20T20:57:24.603Z,81.25
2023-04-20T21:02:26.448Z,81.17
2023-04-20T21:07:28.318Z,81.10
2023-04-20T21:12:30.296Z,80.87
2023-04-20T21:17:32.036Z,81.44
2023-04-20T21:22:33.875Z,82.03
2023-04-20T21:27:35.647Z,81.89
2023-04-20T21:32:37.279Z,82.29
2023-04-20T21:37:38.932Z,82.20
2023-04-20T21:42:40.552Z,82.20
2023-04-20T21:47:42.259Z,82.51
2023-04-20T21:52:43.937Z,84.09
2023-04-20T21:57:45.566Z,84.11
2023-04-20T22:02:47.948Z,84.45
2023-04-20T22:07:51.172Z,84.95
2023-04-20T22:12:53.017Z,84.13
2023-04-20T22:17:54.717Z,84.33
2023-04-20T22:22:57.374Z,84.74
2023-04-20T22:27:59.001Z,84.71
2023-04-20T22:33:00.676Z,85.10
2023-04-20T22:38:02.364Z,85.18
2023-04-20T22:43:04.271Z,85.10
2023-04-20T22:48:06.696Z,84.97
2023-04-20T22:53:08.331Z,85.31
2023-04-20T22:58:10.022Z,85.36
2023-04-20T23:03:11.794Z,86.11
2023-04-20T23:08:13.806Z,85.98
2023-04-20T23:13:18.242Z,85.80
2023-04-20T23:18:19.868Z,85.53
2023-04-20T23:23:21.464Z,86.89
2023-04-20T23:28:23.191Z,87.09
2023-04-20T23:33:24.941Z,87.10
2023-04-20T23:38:26.897Z,86.68
2023-04-20T23:43:28.553Z,87.08
2023-04-20T23:48:30.152Z,87.11
2023-04-20T23:53:35.852Z,86.78
2023-04-20T23:58:38.139Z,86.71
